Time;durP1;ratioP1;P1;durP2;ratioP2;P2;SDS_P1;SDS_P2;PMS_P1;PMS_P2;Temp;Humidity;BMP_temperature;BMP_pressure;BME280_temperature;BME280_humidity;BME280_pressure;Samples;Min_cycle;Max_cycle;Signal;HPM_P1;HPM_P2
2023/12/18 00:01:07;;;;;;;6.73;1.53;;;10.50;99.90;;;;;;5022157;28;20229;-84
2023/12/18 00:03:33;;;;;;;2.50;2.33;;;10.50;99.90;;;;;;5023150;28;20752;-84
2023/12/18 00:05:58;;;;;;;2.83;1.23;;;10.50;99.90;;;;;;5040576;28;20190;-84
2023/12/18 00:08:24;;;;;;;5.60;0.97;;;10.50;99.90;;;;;;5023241;28;20281;-84
2023/12/18 00:10:50;;;;;;;0.50;0.50;;;10.50;99.90;;;;;;5024217;28;20626;-84
2023/12/18 00:13:15;;;;;;;13.27;1.00;;;10.50;99.90;;;;;;5001027;28;20221;-85
2023/12/18 00:15:41;;;;;;;11.77;1.30;;;10.50;99.90;;;;;;5040613;28;20214;-84
2023/12/18 00:18:07;;;;;;;0.83;0.83;;;10.50;99.90;;;;;;5007364;28;20222;-84
2023/12/18 00:20:33;;;;;;;2.47;1.90;;;10.50;99.90;;;;;;5024689;28;20206;-83
2023/12/18 00:22:59;;;;;;;3.33;1.33;;;10.50;99.90;;;;;;5041072;28;21435;-84
2023/12/18 00:25:25;;;;;;;0.97;0.97;;;10.60;99.90;;;;;;5007052;28;20220;-83
2023/12/18 00:27:50;;;;;;;0.70;0.70;;;10.50;99.90;;;;;;5023384;28;20309;-83
2023/12/18 00:30:16;;;;;;;2.77;1.53;;;10.50;99.90;;;;;;5040774;28;20220;-83
2023/12/18 00:32:42;;;;;;;2.10;1.07;;;10.50;99.90;;;;;;5007445;28;20878;-84
2023/12/18 00:35:08;;;;;;;1.10;1.10;;;10.50;99.90;;;;;;5022473;28;21441;-84
2023/12/18 00:37:33;;;;;;;1.10;0.93;;;10.50;99.90;;;;;;5007067;28;21169;-84
2023/12/18 00:39:59;;;;;;;0.40;0.40;;;10.50;99.90;;;;;;5039871;28;20221;-83
2023/12/18 00:42:25;;;;;;;1.13;0.87;;;10.50;99.90;;;;;;5005438;28;20395;-84
2023/12/18 00:44:51;;;;;;;0.80;0.80;;;10.50;99.90;;;;;;5022856;28;20565;-83
2023/12/18 00:47:18;;;;;;;0.70;0.70;;;10.50;99.90;;;;;;5023517;28;20205;-83
2023/12/18 00:49:44;;;;;;;2.33;1.10;;;10.50;99.90;;;;;;5022263;28;20240;-83
2023/12/18 00:52:10;;;;;;;1.23;1.17;;;10.50;99.90;;;;;;5006376;28;20682;-84
2023/12/18 00:54:35;;;;;;;1.13;1.03;;;10.50;99.90;;;;;;5022330;28;20224;-84
2023/12/18 00:57:01;;;;;;;2.77;1.30;;;10.50;99.90;;;;;;5039972;28;20194;-83
2023/12/18 00:59:28;;;;;;;0.80;0.80;;;10.50;99.90;;;;;;5040752;28;20190;-84
2023/12/18 01:01:53;;;;;;;0.97;0.97;;;10.50;99.90;;;;;;5038196;28;20245;-84
2023/12/18 01:04:19;;;;;;;1.20;1.20;;;10.50;99.90;;;;;;5022361;28;20225;-84
2023/12/18 01:06:45;;;;;;;0.93;0.80;;;10.50;99.90;;;;;;5022401;28;21091;-83
2023/12/18 01:09:12;;;;;;;0.97;0.97;;;10.50;99.90;;;;;;5011323;28;20275;-83
2023/12/18 01:11:38;;;;;;;0.60;0.57;;;10.50;99.90;;;;;;4991126;28;20661;-84
2023/12/18 01:14:04;;;;;;;1.40;0.90;;;10.50;99.90;;;;;;5037412;28;20232;-84
2023/12/18 01:16:30;;;;;;;3.03;1.57;;;10.40;99.90;;;;;;5005923;28;20218;-84
2023/12/18 01:18:56;;;;;;;7.63;2.30;;;10.40;99.90;;;;;;5006561;28;20233;-84
2023/12/18 01:21:22;;;;;;;9.40;1.10;;;10.50;99.90;;;;;;5038871;28;20229;-83
2023/12/18 01:23:48;;;;;;;0.67;0.67;;;10.40;99.90;;;;;;5037270;28;20198;-84
2023/12/18 01:26:14;;;;;;;5.83;0.60;;;10.40;99.90;;;;;;5006017;28;20194;-84
2023/12/18 01:28:42;;;;;;;1.40;0.73;;;10.40;99.90;;;;;;5026113;28;20244;-82
2023/12/18 01:31:08;;;;;;;0.50;0.50;;;10.40;99.90;;;;;;5039835;28;20244;-84
2023/12/18 01:33:34;;;;;;;1.73;1.03;;;10.50;99.90;;;;;;4988081;28;20669;-83
2023/12/18 01:36:00;;;;;;;0.70;0.70;;;10.40;99.90;;;;;;5039265;28;20194;-82
2023/12/18 01:38:25;;;;;;;2.30;2.10;;;10.40;99.90;;;;;;5022719;28;20828;-83
2023/12/18 01:40:51;;;;;;;0.70;0.70;;;10.50;99.90;;;;;;5004792;28;20222;-83
2023/12/18 01:43:25;;;;;;;1.97;1.50;;;10.50;99.90;;;;;;5005198;28;20309;-83
2023/12/18 01:45:57;;;;;;;0.93;0.93;;;10.50;99.90;;;;;;5039387;28;20547;-84
2023/12/18 01:48:24;;;;;;;1.70;1.00;;;10.50;99.90;;;;;;5021311;28;20229;-83
2023/12/18 01:50:52;;;;;;;1.17;0.97;;;10.40;99.90;;;;;;5038845;28;20189;-83
2023/12/18 01:53:18;;;;;;;1.37;0.70;;;10.40;99.90;;;;;;5020999;28;20187;-84
2023/12/18 01:55:44;;;;;;;0.80;0.80;;;10.40;99.90;;;;;;5004901;28;20229;-83
2023/12/18 01:58:13;;;;;;;0.93;0.60;;;10.40;99.90;;;;;;5004254;28;20210;-84
2023/12/18 02:00:40;;;;;;;6.73;1.23;;;10.40;99.90;;;;;;5020807;28;20232;-84
2023/12/18 02:03:07;;;;;;;3.30;1.43;;;10.40;99.90;;;;;;5005030;28;20234;-83
2023/12/18 02:05:33;;;;;;;0.80;0.80;;;10.40;99.90;;;;;;5021217;28;20198;-83
2023/12/18 02:08:00;;;;;;;1.63;0.80;;;10.40;99.90;;;;;;5019777;28;20752;-83
2023/12/18 02:10:26;;;;;;;4.43;2.67;;;10.40;99.90;;;;;;5036503;28;20304;-83
2023/12/18 02:12:52;;;;;;;1.53;1.13;;;10.40;99.90;;;;;;4988503;28;20291;-83
2023/12/18 02:15:17;;;;;;;0.60;0.60;;;10.40;99.90;;;;;;5010951;28;20222;-82
2023/12/18 02:17:43;;;;;;;2.80;0.87;;;10.40;99.90;;;;;;5005600;28;20622;-83
2023/12/18 02:20:09;;;;;;;4.60;0.80;;;10.40;99.90;;;;;;5004388;28;20225;-84
2023/12/18 02:22:51;;;;;;;1.83;1.73;;;10.30;99.90;;;;;;5003897;28;20776;-83
2023/12/18 02:25:17;;;;;;;0.50;0.50;;;10.40;99.90;;;;;;5037285;28;20699;-84
2023/12/18 02:27:49;;;;;;;2.47;0.67;;;10.40;99.90;;;;;;5020465;28;20229;-82
2023/12/18 02:30:20;;;;;;;0.80;0.77;;;10.40;99.90;;;;;;5020082;28;20929;-83
2023/12/18 02:32:46;;;;;;;0.23;0.23;;;10.30;99.90;;;;;;5020882;28;20189;-84
2023/12/18 02:35:12;;;;;;;1.07;0.97;;;10.40;99.90;;;;;;5012733;28;20190;-83
2023/12/18 02:37:38;;;;;;;0.47;0.47;;;10.40;99.90;;;;;;5037100;28;20788;-83
2023/12/18 02:40:04;;;;;;;0.60;0.53;;;10.40;99.90;;;;;;5038658;28;20300;-84
2023/12/18 02:42:30;;;;;;;5.37;1.10;;;10.30;99.90;;;;;;4987290;28;20312;-83
2023/12/18 02:44:56;;;;;;;11.67;1.30;;;10.40;99.90;;;;;;5003905;28;21514;-84
2023/12/18 02:47:23;;;;;;;1.23;1.13;;;10.40;99.90;;;;;;5021000;28;20245;-83
2023/12/18 02:49:49;;;;;;;0.63;0.63;;;10.40;99.90;;;;;;5003278;28;20242;-84
2023/12/18 02:52:14;;;;;;;1.17;1.10;;;10.40;99.90;;;;;;5003344;28;20689;-83
2023/12/18 02:54:40;;;;;;;8.33;1.30;;;10.40;99.90;;;;;;5009704;28;20233;-83
2023/12/18 02:57:06;;;;;;;2.73;1.23;;;10.40;99.90;;;;;;5003500;28;20682;-83
2023/12/18 02:59:31;;;;;;;7.00;1.53;;;10.40;99.90;;;;;;5038035;28;20207;-83
2023/12/18 03:01:57;;;;;;;1.90;1.80;;;10.40;99.90;;;;;;5038464;28;20289;-84
2023/12/18 03:04:23;;;;;;;2.47;0.90;;;10.40;99.90;;;;;;4995526;28;20784;-83
2023/12/18 03:06:49;;;;;;;1.90;0.70;;;10.40;99.90;;;;;;5020214;28;21156;-83
2023/12/18 03:09:15;;;;;;;2.13;1.00;;;10.40;99.90;;;;;;5019721;28;21140;-83
2023/12/18 03:11:42;;;;;;;4.33;1.73;;;10.40;99.90;;;;;;5020634;28;20657;-83
2023/12/18 03:14:11;;;;;;;5.00;0.77;;;10.40;99.90;;;;;;5037121;28;20854;-82
2023/12/18 03:16:37;;;;;;;0.97;0.67;;;10.40;99.90;;;;;;5019357;28;20309;-82
2023/12/18 03:19:03;;;;;;;6.63;1.27;;;10.40;99.90;;;;;;5019208;28;20218;-83
2023/12/18 03:21:29;;;;;;;2.87;0.57;;;10.40;99.90;;;;;;5018971;28;20291;-83
2023/12/18 03:23:55;;;;;;;5.03;1.23;;;10.40;99.90;;;;;;5019131;28;20189;-84
2023/12/18 03:26:21;;;;;;;1.00;0.27;;;10.40;99.90;;;;;;4987349;28;20600;-83
2023/12/18 03:28:46;;;;;;;1.20;0.80;;;10.40;99.90;;;;;;5037423;28;20271;-83
2023/12/18 03:31:14;;;;;;;0.93;0.93;;;10.50;99.90;;;;;;4987474;28;20222;-83
2023/12/18 03:33:40;;;;;;;4.30;1.20;;;10.40;99.90;;;;;;5018515;28;20225;-84
2023/12/18 03:36:06;;;;;;;1.57;1.50;;;10.40;99.90;;;;;;5019055;28;20222;-83
2023/12/18 03:38:32;;;;;;;5.07;0.73;;;10.40;99.90;;;;;;5018626;28;20221;-84
2023/12/18 03:40:58;;;;;;;1.27;1.27;;;10.40;99.90;;;;;;5037293;28;20222;-83
2023/12/18 03:43:24;;;;;;;0.30;0.30;;;10.40;99.90;;;;;;5018952;28;20567;-84
2023/12/18 03:45:50;;;;;;;0.93;0.93;;;10.40;99.90;;;;;;4992570;28;20678;-83
2023/12/18 03:48:16;;;;;;;0.63;0.63;;;10.50;99.90;;;;;;4987703;28;20279;-84
2023/12/18 03:50:42;;;;;;;1.20;1.03;;;10.50;99.90;;;;;;5019262;28;20192;-84
2023/12/18 03:53:08;;;;;;;1.40;0.97;;;10.50;99.90;;;;;;5019308;28;20397;-83
2023/12/18 03:55:37;;;;;;;0.67;0.57;;;10.50;99.90;;;;;;5038125;28;20232;-84
2023/12/18 03:58:03;;;;;;;3.93;1.23;;;10.40;99.90;;;;;;5002705;28;20741;-84
2023/12/18 04:00:29;;;;;;;14.50;2.17;;;10.50;99.90;;;;;;5018506;28;20227;-83
2023/12/18 04:02:54;;;;;;;1.37;1.23;;;10.50;99.90;;;;;;5019489;28;20214;-83
2023/12/18 04:05:22;;;;;;;10.33;0.90;;;10.50;99.90;;;;;;5019690;28;20243;-84
2023/12/18 04:07:48;;;;;;;7.87;0.87;;;10.50;99.90;;;;;;5019361;28;20248;-82
2023/12/18 04:10:14;;;;;;;1.00;1.00;;;10.50;99.90;;;;;;5019253;28;20595;-84
2023/12/18 04:12:40;;;;;;;0.73;0.73;;;10.50;99.90;;;;;;5003262;28;20234;-84
2023/12/18 04:15:06;;;;;;;1.50;1.40;;;10.50;99.90;;;;;;4994527;28;20600;-84
2023/12/18 04:17:32;;;;;;;0.90;0.90;;;10.40;99.90;;;;;;5036446;28;20205;-84
2023/12/18 04:19:58;;;;;;;1.03;0.77;;;10.40;99.90;;;;;;5035193;28;21018;-84
2023/12/18 04:22:24;;;;;;;6.90;0.77;;;10.40;99.90;;;;;;5019883;28;20234;-84
2023/12/18 04:24:49;;;;;;;0.30;0.30;;;10.40;99.90;;;;;;5036493;28;21240;-82
2023/12/18 04:27:15;;;;;;;1.50;1.40;;;10.40;99.90;;;;;;5019834;28;20267;-83
2023/12/18 04:29:41;;;;;;;0.67;0.67;;;10.40;99.90;;;;;;5002740;28;20194;-83
2023/12/18 04:32:07;;;;;;;3.33;1.43;;;10.40;99.90;;;;;;5018561;28;20234;-82
2023/12/18 04:34:32;;;;;;;0.70;0.70;;;10.40;99.90;;;;;;5023090;28;20223;-83
2023/12/18 04:36:58;;;;;;;0.90;0.90;;;10.40;99.90;;;;;;5006126;28;20245;-83
2023/12/18 04:39:24;;;;;;;1.53;1.40;;;10.30;99.90;;;;;;5040420;28;21302;-83
2023/12/18 04:41:50;;;;;;;1.50;1.40;;;10.30;99.90;;;;;;5006636;28;20612;-84
2023/12/18 04:44:15;;;;;;;5.20;1.07;;;10.30;99.90;;;;;;5022736;28;20204;-83
2023/12/18 04:46:41;;;;;;;0.40;0.40;;;10.40;99.90;;;;;;5006240;28;20635;-83
2023/12/18 04:49:09;;;;;;;1.60;0.77;;;10.40;99.90;;;;;;5006429;28;20229;-82
2023/12/18 04:51:35;;;;;;;8.17;1.77;;;10.30;99.90;;;;;;5005586;28;20238;-83
2023/12/18 04:54:00;;;;;;;1.13;1.07;;;10.30;99.90;;;;;;5023444;28;20209;-84
2023/12/18 04:56:26;;;;;;;1.63;1.53;;;10.40;99.90;;;;;;5041347;28;20290;-84
2023/12/18 04:58:52;;;;;;;1.17;1.07;;;10.30;99.90;;;;;;5021745;28;21224;-83
2023/12/18 05:01:18;;;;;;;0.40;0.23;;;10.40;99.90;;;;;;5006142;28;20238;-83
2023/12/18 05:03:43;;;;;;;0.50;0.50;;;10.40;99.90;;;;;;5021527;28;20225;-83
2023/12/18 05:06:19;;;;;;;1.23;1.13;;;10.40;99.90;;;;;;5040054;28;20316;-84
2023/12/18 05:08:45;;;;;;;0.97;0.77;;;10.40;99.90;;;;;;5038184;28;20232;-84
2023/12/18 05:11:14;;;;;;;0.83;0.60;;;10.40;99.90;;;;;;4997119;28;20560;-83
2023/12/18 05:13:40;;;;;;;0.30;0.27;;;10.40;99.90;;;;;;5022887;28;20218;-84
2023/12/18 05:16:05;;;;;;;13.83;1.73;;;10.40;99.90;;;;;;5022183;28;20213;-83
2023/12/18 05:18:31;;;;;;;4.53;1.53;;;10.50;99.90;;;;;;5006375;28;20222;-83
2023/12/18 05:20:57;;;;;;;0.40;0.40;;;10.40;99.90;;;;;;5022419;28;20638;-83
2023/12/18 05:23:24;;;;;;;4.83;0.93;;;10.50;99.90;;;;;;5038902;28;20233;-83
2023/12/18 05:25:50;;;;;;;0.77;0.60;;;10.40;99.90;;;;;;5020546;28;20328;-84
2023/12/18 05:28:16;;;;;;;12.67;2.33;;;10.50;99.90;;;;;;5039648;28;20276;-83
2023/12/18 05:30:42;;;;;;;4.30;1.73;;;10.50;99.90;;;;;;5004804;28;20337;-83
2023/12/18 05:33:08;;;;;;;2.20;1.60;;;10.50;99.90;;;;;;5021402;28;20280;-82
2023/12/18 05:35:33;;;;;;;4.63;1.00;;;10.50;99.90;;;;;;5040720;28;20228;-83
2023/12/18 05:37:59;;;;;;;6.00;1.27;;;10.40;99.90;;;;;;5039555;28;20303;-84
2023/12/18 05:40:25;;;;;;;2.30;2.13;;;10.40;99.90;;;;;;4998593;28;20708;-83
2023/12/18 05:42:50;;;;;;;2.13;1.70;;;10.50;99.90;;;;;;4989082;28;20237;-83
2023/12/18 05:45:16;;;;;;;2.20;2.10;;;10.50;99.90;;;;;;5035597;28;20765;-83
2023/12/18 05:47:42;;;;;;;10.93;1.83;;;10.40;99.90;;;;;;5005165;28;20225;-83
2023/12/18 05:50:08;;;;;;;2.90;1.50;;;10.40;99.90;;;;;;5005527;28;20797;-82
2023/12/18 05:52:34;;;;;;;3.73;1.30;;;10.40;99.90;;;;;;5011610;28;20242;-83
2023/12/18 05:54:59;;;;;;;6.83;1.80;;;10.40;99.90;;;;;;5026892;28;20341;-84
2023/12/18 05:57:25;;;;;;;4.50;1.70;;;10.40;99.90;;;;;;5005506;28;20232;-84
2023/12/18 05:59:51;;;;;;;4.63;0.80;;;10.40;99.90;;;;;;5004760;28;20186;-82
2023/12/18 06:02:17;;;;;;;4.17;1.63;;;10.30;99.90;;;;;;5021738;28;20268;-83
2023/12/18 06:04:43;;;;;;;0.90;0.77;;;10.30;99.90;;;;;;5004304;28;20229;-83
2023/12/18 06:07:13;;;;;;;1.03;0.83;;;10.40;99.90;;;;;;5020537;28;20245;-83
2023/12/18 06:09:39;;;;;;;2.13;1.03;;;10.30;99.90;;;;;;5021064;28;20301;-83
2023/12/18 06:12:06;;;;;;;1.70;1.43;;;10.40;99.90;;;;;;5021306;28;20226;-83
2023/12/18 06:14:31;;;;;;;0.83;0.83;;;10.30;99.90;;;;;;5037821;28;20194;-83
2023/12/18 06:16:57;;;;;;;3.03;1.07;;;10.40;99.90;;;;;;5021152;28;20316;-83
2023/12/18 06:19:23;;;;;;;1.47;1.03;;;10.30;99.90;;;;;;5021280;28;20224;-83
2023/12/18 06:21:48;;;;;;;5.33;3.13;;;10.40;99.90;;;;;;4987759;28;21080;-84
2023/12/18 06:24:14;;;;;;;4.80;1.17;;;10.30;99.90;;;;;;5005206;28;20263;-83
2023/12/18 06:26:40;;;;;;;1.50;0.50;;;10.30;99.90;;;;;;5020453;28;20251;-84
2023/12/18 06:29:05;;;;;;;0.93;0.80;;;10.40;99.90;;;;;;5021324;28;20265;-83
2023/12/18 06:31:32;;;;;;;1.03;1.03;;;10.40;99.90;;;;;;4987073;28;20598;-83
2023/12/18 06:33:58;;;;;;;4.77;2.27;;;10.40;99.90;;;;;;5020681;28;20244;-83
2023/12/18 06:36:24;;;;;;;2.53;1.03;;;10.40;99.90;;;;;;4993972;28;20308;-83
2023/12/18 06:38:49;;;;;;;4.20;1.43;;;10.40;99.90;;;;;;5003402;28;20908;-83
2023/12/18 06:41:15;;;;;;;1.03;0.93;;;10.40;99.90;;;;;;5020956;28;20185;-84
2023/12/18 06:43:41;;;;;;;7.50;0.83;;;10.40;99.90;;;;;;5003801;28;20411;-83
2023/12/18 06:46:07;;;;;;;3.30;1.13;;;10.40;99.90;;;;;;5038177;28;20229;-84
2023/12/18 06:48:33;;;;;;;5.50;0.83;;;10.40;99.90;;;;;;5004211;28;20224;-83
2023/12/18 06:50:59;;;;;;;0.60;0.60;;;10.40;99.90;;;;;;5035531;28;20190;-84
2023/12/18 06:53:25;;;;;;;1.23;1.20;;;10.40;99.90;;;;;;4988101;28;20247;-83
2023/12/18 06:55:51;;;;;;;3.07;2.77;;;10.40;99.90;;;;;;5003306;28;20213;-83
2023/12/18 06:58:16;;;;;;;4.07;1.17;;;10.50;99.90;;;;;;5037459;28;20991;-82
2023/12/18 07:00:43;;;;;;;0.53;0.50;;;10.40;99.90;;;;;;5003902;28;20257;-83
2023/12/18 07:03:09;;;;;;;5.40;0.97;;;10.40;99.90;;;;;;5018763;28;20260;-83
2023/12/18 07:05:35;;;;;;;1.40;1.40;;;10.40;99.90;;;;;;5004584;28;20205;-83
2023/12/18 07:08:01;;;;;;;0.67;0.60;;;10.50;99.90;;;;;;5020705;28;20222;-83
2023/12/18 07:10:27;;;;;;;1.60;1.60;;;10.40;99.90;;;;;;5002870;28;20275;-83
2023/12/18 07:12:52;;;;;;;4.80;0.97;;;10.50;99.90;;;;;;5038412;28;20305;-85
2023/12/18 07:15:20;;;;;;;1.90;1.23;;;10.50;99.90;;;;;;5003798;28;20661;-84
2023/12/18 07:17:46;;;;;;;3.13;1.50;;;10.60;99.90;;;;;;5019397;28;20612;-82
2023/12/18 07:20:12;;;;;;;13.30;1.03;;;10.60;99.90;;;;;;5004515;28;20645;-83
2023/12/18 07:22:40;;;;;;;1.43;0.80;;;10.60;99.90;;;;;;5019411;28;20291;-81
2023/12/18 07:25:09;;;;;;;0.70;0.70;;;10.60;99.90;;;;;;5019367;28;20830;-83
2023/12/18 07:27:35;;;;;;;2.90;1.47;;;10.60;99.90;;;;;;5003652;28;20237;-84
2023/12/18 07:30:04;;;;;;;16.13;1.80;;;10.50;99.90;;;;;;4987041;28;20186;-82
2023/12/18 07:32:31;;;;;;;0.73;0.73;;;10.50;99.90;;;;;;5003405;28;20201;-82
2023/12/18 07:34:59;;;;;;;6.63;1.20;;;10.60;99.90;;;;;;5018620;28;20218;-82
2023/12/18 07:37:32;;;;;;;4.20;1.40;;;10.70;99.90;;;;;;5002479;28;20218;-83
2023/12/18 07:39:59;;;;;;;2.57;0.77;;;10.60;99.90;;;;;;5001999;28;20618;-83
2023/12/18 07:42:26;;;;;;;0.60;0.60;;;10.60;99.90;;;;;;5034646;28;20450;-83
2023/12/18 07:44:52;;;;;;;1.00;0.90;;;10.60;99.90;;;;;;5015903;28;20190;-84
2023/12/18 07:47:18;;;;;;;1.00;0.90;;;10.60;99.90;;;;;;5033949;28;20201;-84
2023/12/18 07:49:44;;;;;;;1.37;0.80;;;10.60;99.90;;;;;;5033630;28;21180;-84
2023/12/18 07:52:10;;;;;;;0.70;0.70;;;10.60;99.90;;;;;;5002033;28;20221;-83
2023/12/18 07:54:36;;;;;;;15.93;2.23;;;10.60;99.90;;;;;;5023529;28;21042;-84
2023/12/18 07:57:04;;;;;;;0.40;0.40;;;10.60;99.90;;;;;;5017080;28;20622;-84
2023/12/18 07:59:30;;;;;;;2.27;1.37;;;10.60;99.90;;;;;;5036453;28;20264;-83
2023/12/18 08:01:56;;;;;;;2.40;0.77;;;10.70;99.90;;;;;;5032607;28;20234;-83
2023/12/18 08:04:22;;;;;;;1.13;1.13;;;10.60;99.90;;;;;;5018378;28;20670;-83
2023/12/18 08:06:51;;;;;;;3.47;0.70;;;10.60;99.90;;;;;;5017423;28;20222;-83
2023/12/18 08:09:16;;;;;;;0.83;0.83;;;10.60;99.90;;;;;;5021783;28;20300;-83
2023/12/18 08:11:42;;;;;;;10.23;1.57;;;10.60;99.90;;;;;;5039471;28;20701;-82
2023/12/18 08:14:09;;;;;;;5.10;1.67;;;10.60;99.90;;;;;;5005643;28;20828;-83
2023/12/18 08:16:35;;;;;;;0.80;0.80;;;10.60;99.90;;;;;;5021543;28;20432;-82
2023/12/18 08:19:00;;;;;;;0.97;0.97;;;10.60;99.90;;;;;;5021523;28;20580;-83
2023/12/18 08:21:27;;;;;;;1.87;1.53;;;10.60;99.90;;;;;;5005828;28;20836;-82
2023/12/18 08:23:52;;;;;;;3.30;1.57;;;10.70;99.90;;;;;;5037713;28;20196;-82
2023/12/18 08:26:18;;;;;;;2.90;2.73;;;10.70;99.90;;;;;;5022506;28;20678;-82
2023/12/18 08:28:45;;;;;;;13.33;1.93;;;10.60;99.90;;;;;;5005815;28;20238;-82
2023/12/18 08:31:11;;;;;;;8.80;1.70;;;10.60;99.90;;;;;;5037351;28;20226;-82
2023/12/18 08:33:38;;;;;;;3.30;2.13;;;10.70;99.90;;;;;;5039558;28;20214;-83
2023/12/18 08:36:05;;;;;;;2.57;1.70;;;10.60;99.90;;;;;;5037926;28;20342;-82
2023/12/18 08:38:30;;;;;;;0.70;0.70;;;10.70;99.90;;;;;;5006318;28;20194;-82
2023/12/18 08:40:56;;;;;;;12.73;1.60;;;10.70;99.90;;;;;;5021675;28;20767;-82
2023/12/18 08:43:22;;;;;;;6.27;1.53;;;10.70;99.90;;;;;;5005166;28;20279;-82
2023/12/18 08:45:48;;;;;;;5.30;1.53;;;10.70;99.90;;;;;;5020469;28;20697;-82
2023/12/18 08:48:14;;;;;;;7.30;1.03;;;10.70;99.90;;;;;;4987431;28;20332;-83
2023/12/18 08:50:39;;;;;;;7.63;1.23;;;10.80;99.90;;;;;;5022585;28;20238;-84
2023/12/18 08:53:05;;;;;;;6.03;1.90;;;10.70;99.90;;;;;;5020838;28;20745;-84
2023/12/18 08:55:31;;;;;;;1.43;1.33;;;10.80;99.90;;;;;;5039718;28;20308;-83
2023/12/18 08:57:57;;;;;;;0.97;0.87;;;10.70;99.90;;;;;;5005380;28;20225;-83
2023/12/18 09:00:23;;;;;;;6.13;1.50;;;10.80;99.90;;;;;;5004208;28;20592;-83
2023/12/18 09:02:49;;;;;;;0.60;0.60;;;10.80;99.90;;;;;;5005223;28;20312;-83
2023/12/18 09:05:15;;;;;;;1.80;1.03;;;10.80;99.90;;;;;;5022553;28;20183;-85
2023/12/18 09:07:41;;;;;;;6.07;1.87;;;10.80;99.90;;;;;;5006102;28;20228;-84
2023/12/18 09:10:07;;;;;;;1.63;1.03;;;10.90;99.90;;;;;;5006612;28;20229;-85
2023/12/18 09:12:32;;;;;;;2.77;2.57;;;10.90;99.90;;;;;;5007674;28;20917;-86
2023/12/18 09:14:58;;;;;;;2.73;1.80;;;10.90;99.90;;;;;;5023216;28;20203;-84
2023/12/18 09:17:24;;;;;;;5.27;1.40;;;10.90;99.90;;;;;;5025251;28;20926;-85
2023/12/18 09:19:50;;;;;;;1.47;1.07;;;10.90;99.90;;;;;;5001839;28;20243;-83
2023/12/18 09:22:16;;;;;;;2.37;0.90;;;10.90;99.90;;;;;;5005678;28;20258;-83
2023/12/18 09:24:41;;;;;;;1.47;1.37;;;11.00;99.90;;;;;;5013017;28;20229;-83
2023/12/18 09:27:07;;;;;;;1.30;1.20;;;11.00;99.90;;;;;;4999972;28;20753;-84
2023/12/18 09:29:33;;;;;;;28.47;2.73;;;11.00;99.90;;;;;;5023375;28;20190;-83
2023/12/18 09:31:59;;;;;;;2.37;2.27;;;10.90;99.90;;;;;;5014786;28;20217;-84
2023/12/18 09:34:24;;;;;;;3.03;0.93;;;11.00;99.90;;;;;;5008013;28;20746;-84
2023/12/18 09:36:50;;;;;;;3.67;1.17;;;11.00;99.90;;;;;;5039765;28;20222;-83
2023/12/18 09:39:16;;;;;;;1.67;1.57;;;11.10;99.90;;;;;;5022675;28;20256;-84
2023/12/18 09:41:42;;;;;;;4.17;2.23;;;11.00;99.90;;;;;;5008151;28;20303;-84
2023/12/18 09:44:07;;;;;;;5.60;0.70;;;11.00;99.90;;;;;;4996360;28;20249;-82
2023/12/18 09:46:33;;;;;;;2.40;2.00;;;11.10;99.90;;;;;;5022699;28;20248;-81
2023/12/18 09:48:59;;;;;;;0.57;0.57;;;11.00;99.90;;;;;;5022536;28;20232;-84
2023/12/18 09:51:25;;;;;;;1.77;1.53;;;11.10;99.90;;;;;;5021874;28;20213;-83
2023/12/18 09:53:53;;;;;;;1.13;1.13;;;11.00;99.90;;;;;;5036124;28;20197;-86
2023/12/18 09:56:23;;;;;;;4.10;3.80;;;11.00;99.90;;;;;;5028989;28;20472;-83
2023/12/18 09:58:48;;;;;;;1.00;0.93;;;11.00;99.90;;;;;;5039244;28;20253;-82
2023/12/18 10:01:15;;;;;;;1.33;1.03;;;11.00;99.90;;;;;;4988177;28;20380;-83
2023/12/18 10:03:41;;;;;;;6.40;1.93;;;10.90;99.90;;;;;;5039074;28;20268;-83
2023/12/18 10:06:08;;;;;;;6.40;1.43;;;11.00;99.90;;;;;;5020566;28;20218;-83
2023/12/18 10:08:35;;;;;;;3.30;1.20;;;10.90;99.90;;;;;;5039979;28;20495;-83
2023/12/18 10:11:01;;;;;;;3.50;2.73;;;11.00;99.90;;;;;;5021103;28;20395;-83
2023/12/18 10:13:27;;;;;;;1.30;1.20;;;11.00;99.90;;;;;;5036871;28;20257;-83
2023/12/18 10:15:56;;;;;;;6.90;0.60;;;11.10;99.90;;;;;;5004805;28;20630;-82
2023/12/18 10:18:23;;;;;;;10.93;2.67;;;11.00;99.90;;;;;;5038569;28;20234;-82
2023/12/18 10:20:50;;;;;;;4.20;1.47;;;11.10;99.90;;;;;;5020991;28;20194;-83
2023/12/18 10:23:16;;;;;;;6.57;1.37;;;11.10;99.90;;;;;;5021024;28;20218;-83
2023/12/18 10:25:42;;;;;;;6.40;1.43;;;11.10;99.90;;;;;;5038367;28;20244;-83
2023/12/18 10:28:08;;;;;;;2.63;1.37;;;11.00;99.90;;;;;;5038943;28;20238;-84
2023/12/18 10:30:36;;;;;;;11.50;1.33;;;11.10;99.90;;;;;;5004920;28;20236;-83
2023/12/18 10:33:05;;;;;;;1.40;0.93;;;11.00;99.90;;;;;;5012183;28;20179;-83
2023/12/18 10:35:32;;;;;;;0.83;0.70;;;11.00;99.90;;;;;;5021071;28;20290;-82
2023/12/18 10:38:00;;;;;;;2.63;1.43;;;11.00;99.90;;;;;;5038639;28;20673;-82
2023/12/18 10:40:28;;;;;;;2.73;1.63;;;11.10;99.90;;;;;;5038505;28;20244;-82
2023/12/18 10:43:04;;;;;;;9.10;1.40;;;11.10;99.90;;;;;;5036172;28;20234;-83
2023/12/18 10:45:32;;;;;;;3.03;1.50;;;11.00;99.90;;;;;;5020050;28;20267;-83
2023/12/18 10:47:59;;;;;;;4.17;2.60;;;11.10;99.90;;;;;;5004129;28;20197;-83
2023/12/18 10:50:29;;;;;;;3.23;2.93;;;11.00;99.90;;;;;;5020757;28;20634;-83
2023/12/18 10:52:59;;;;;;;2.80;2.47;;;10.90;99.90;;;;;;5037189;28;20226;-83
2023/12/18 10:55:26;;;;;;;11.80;2.23;;;10.80;99.90;;;;;;5041413;28;20256;-83
2023/12/18 10:57:56;;;;;;;2.27;1.70;;;10.80;99.90;;;;;;5037646;28;21182;-83
2023/12/18 11:00:23;;;;;;;1.50;1.40;;;10.90;99.90;;;;;;5037647;28;20217;-83
2023/12/18 11:02:49;;;;;;;0.57;0.57;;;10.90;99.90;;;;;;5037105;28;20882;-83
2023/12/18 11:05:15;;;;;;;1.43;1.17;;;10.90;99.90;;;;;;5020926;28;20301;-83
2023/12/18 11:07:42;;;;;;;1.53;1.17;;;11.00;99.90;;;;;;4987538;28;20246;-83
2023/12/18 11:10:08;;;;;;;14.47;1.40;;;11.10;99.90;;;;;;5020227;28;20737;-83
2023/12/18 11:12:37;;;;;;;2.40;1.23;;;11.10;99.90;;;;;;5020208;28;20240;-82
2023/12/18 11:15:19;;;;;;;5.10;1.30;;;11.10;99.90;;;;;;5036070;28;20603;-82
2023/12/18 11:18:12;;;;;;;0.80;0.77;;;11.20;99.90;;;;;;5038210;28;20274;-82
2023/12/18 11:20:42;;;;;;;0.90;0.87;;;11.10;99.90;;;;;;5039296;28;20228;-83
2023/12/18 11:23:11;;;;;;;1.37;1.27;;;11.10;99.90;;;;;;5019122;28;20822;-84
2023/12/18 11:25:47;;;;;;;0.80;0.77;;;11.10;99.90;;;;;;5034678;28;21109;-83
2023/12/18 11:28:14;;;;;;;2.83;1.23;;;11.20;99.90;;;;;;5020017;28;20236;-83
2023/12/18 11:30:44;;;;;;;1.33;0.90;;;11.20;99.90;;;;;;5036572;28;20685;-83
2023/12/18 11:33:13;;;;;;;5.63;0.67;;;11.10;99.90;;;;;;5020065;28;20222;-82
2023/12/18 11:35:49;;;;;;;8.93;1.10;;;11.20;99.90;;;;;;5038584;28;20190;-83
2023/12/18 11:38:17;;;;;;;13.20;1.60;;;11.20;99.90;;;;;;5018981;28;20222;-84
2023/12/18 11:40:48;;;;;;;1.50;1.00;;;11.30;99.90;;;;;;5020052;28;20217;-82
2023/12/18 11:43:38;;;;;;;1.10;0.73;;;11.30;99.90;;;;;;5021119;28;20221;-83
2023/12/18 11:46:08;;;;;;;1.60;1.27;;;11.30;99.90;;;;;;5039456;28;20216;-83
2023/12/18 11:48:34;;;;;;;0.80;0.80;;;11.30;99.90;;;;;;5023118;28;21076;-83
2023/12/18 11:51:04;;;;;;;1.07;1.07;;;11.40;99.90;;;;;;5023874;28;20212;-83
2023/12/18 11:53:36;;;;;;;0.90;0.60;;;11.40;99.90;;;;;;5025085;28;20186;-83
2023/12/18 11:56:10;;;;;;;2.70;2.50;;;11.30;99.90;;;;;;5007915;28;20214;-92
2023/12/18 11:58:37;;;;;;;1.27;1.17;;;11.40;99.90;;;;;;5031265;28;20216;-91
2023/12/18 12:01:03;;;;;;;1.27;1.13;;;11.50;99.90;;;;;;5005514;28;20708;-92
2023/12/18 12:03:31;;;;;;;3.63;1.07;;;11.40;99.90;;;;;;5030426;28;20690;-91
2023/12/18 12:05:58;;;;;;;5.37;0.93;;;11.40;99.90;;;;;;5029889;28;20265;-92
2023/12/18 12:08:24;;;;;;;1.90;1.80;;;11.40;99.90;;;;;;5031059;28;20187;-91
2023/12/18 12:10:50;;;;;;;10.37;1.33;;;11.50;99.90;;;;;;5029821;28;20213;-92
2023/12/18 12:13:18;;;;;;;2.53;2.30;;;11.40;99.90;;;;;;5029073;28;20229;-91
2023/12/18 12:15:58;;;;;;;1.37;1.27;;;11.40;99.90;;;;;;5022408;28;21014;-91
2023/12/18 12:18:29;;;;;;;9.77;2.80;;;11.40;99.90;;;;;;5048109;28;20754;-92
2023/12/18 12:20:56;;;;;;;4.83;0.80;;;11.40;99.90;;;;;;5029833;28;20178;-90
2023/12/18 12:23:23;;;;;;;3.17;1.00;;;11.30;99.90;;;;;;5029649;28;20209;-91
2023/12/18 12:25:56;;;;;;;1.67;1.23;;;11.30;99.90;;;;;;5027124;28;20252;-92
2023/12/18 12:28:22;;;;;;;1.60;1.50;;;11.30;99.90;;;;;;5045177;28;20225;-91
2023/12/18 12:30:48;;;;;;;2.63;1.30;;;11.30;99.90;;;;;;5018187;28;20202;-91
2023/12/18 12:33:16;;;;;;;1.87;1.00;;;11.30;99.90;;;;;;5027864;28;20283;-92
2023/12/18 12:35:43;;;;;;;1.60;1.50;;;11.30;99.90;;;;;;5046709;28;20533;-91
2023/12/18 12:38:09;;;;;;;1.03;1.03;;;11.30;99.90;;;;;;5029846;28;20304;-91
2023/12/18 12:40:46;;;;;;;18.77;1.50;;;11.30;99.90;;;;;;5046696;28;20221;-90
2023/12/18 12:43:14;;;;;;;5.80;1.10;;;11.20;99.90;;;;;;5045082;28;20253;-91